createdAt,value
2023-02-01T00:00:43.384Z,6.38
2023-02-01T00:01:45.031Z,4.63
2023-02-01T00:02:46.744Z,7.72
2023-02-01T00:03:48.444Z,6.72
2023-02-01T00:04:49.999Z,6.72
2023-02-01T00:05:59.262Z,8.45
2023-02-01T00:07:01.878Z,6.65
2023-02-01T00:08:03.546Z,5.93
2023-02-01T00:09:05.431Z,4.93
2023-02-01T00:10:08.075Z,5.85
2023-02-01T00:11:12.098Z,8.27
2023-02-01T00:12:13.987Z,5.45
2023-02-01T00:13:15.546Z,6.32
2023-02-01T00:14:18.212Z,7.75
2023-02-01T00:15:20.565Z,6.95
2023-02-01T00:16:25.507Z,7.85
2023-02-01T00:17:27.124Z,8.15
2023-02-01T00:18:28.687Z,6.90
2023-02-01T00:19:30.270Z,7.82
2023-02-01T00:20:31.802Z,6.90
2023-02-01T00:21:33.746Z,6.90
2023-02-01T00:22:35.311Z,6.70
2023-02-01T00:23:37.969Z,6.00
2023-02-01T00:24:39.516Z,6.65
2023-02-01T00:25:41.070Z,5.03
2023-02-01T00:26:45.817Z,5.68
2023-02-01T00:27:51.685Z,6.95
2023-02-01T00:28:53.269Z,8.07
2023-02-01T00:29:57.889Z,7.20
2023-02-01T00:31:03.649Z,8.45
2023-02-01T00:32:05.390Z,8.38
2023-02-01T00:33:07.072Z,5.00
2023-02-01T00:34:12.699Z,7.25
2023-02-01T00:35:14.287Z,6.68
2023-02-01T00:36:16.269Z,6.90
2023-02-01T00:37:17.827Z,6.03
2023-02-01T00:38:19.409Z,7.93
2023-02-01T00:39:21.023Z,6.47
2023-02-01T00:40:22.890Z,6.53
2023-02-01T00:41:24.761Z,7.47
2023-02-01T00:42:26.381Z,6.10
2023-02-01T00:43:28.023Z,8.95
2023-02-01T00:44:34.185Z,8.60
2023-02-01T00:45:36.419Z,9.18
2023-02-01T00:46:38.101Z,5.47
2023-02-01T00:47:40.054Z,9.43
2023-02-01T00:48:41.766Z,7.82
2023-02-01T00:49:43.324Z,8.00
2023-02-01T00:50:45.195Z,9.02
2023-02-01T00:51:46.753Z,6.68
2023-02-01T00:52:48.332Z,7.10
2023-02-01T00:53:50.781Z,8.55
2023-02-01T00:54:52.401Z,6.90
2023-02-01T00:55:53.935Z,7.10
2023-02-01T00:56:55.495Z,9.07
2023-02-01T00:57:57.056Z,7.78
2023-02-01T00:58:58.791Z,6.05
2023-02-01T01:00:00.354Z,7.03
2023-02-01T01:01:01.946Z,9.05
2023-02-01T01:02:03.583Z,7.80
2023-02-01T01:03:18.682Z,9.40
2023-02-01T01:04:20.323Z,9.00
2023-02-01T01:05:21.996Z,7.32
2023-02-01T01:06:29.268Z,7.78
2023-02-01T01:07:30.881Z,8.82
2023-02-01T01:08:32.959Z,8.68
2023-02-01T01:09:34.991Z,7.63
2023-02-01T01:10:36.556Z,4.93
2023-02-01T01:11:39.495Z,4.80
2023-02-01T01:12:41.853Z,6.05
2023-02-01T01:13:43.605Z,5.45
2023-02-01T01:14:45.180Z,7.85
2023-02-01T01:15:46.755Z,8.15
2023-02-01T01:16:48.303Z,7.20
2023-02-01T01:17:49.839Z,6.72
2023-02-01T01:18:52.282Z,6.95
2023-02-01T01:19:54.004Z,6.35
2023-02-01T01:20:55.551Z,6.65
2023-02-01T01:21:57.108Z,7.95
2023-02-01T01:22:58.642Z,7.05
2023-02-01T01:24:00.620Z,6.38
2023-02-01T01:25:02.257Z,6.00
2023-02-01T01:26:08.914Z,5.53
2023-02-01T01:27:10.463Z,7.75
2023-02-01T01:28:12.024Z,7.70
2023-02-01T01:29:13.914Z,6.32
2023-02-01T01:30:16.201Z,11.00
2023-02-01T01:31:19.388Z,10.05
2023-02-01T01:32:21.298Z,8.98
2023-02-01T01:33:22.852Z,7.05
2023-02-01T01:34:24.484Z,7.03
2023-02-01T01:35:26.075Z,10.02
2023-02-01T01:36:28.426Z,6.00
2023-02-01T01:37:30.087Z,8.55
2023-02-01T01:38:32.004Z,7.90
2023-02-01T01:39:33.587Z,8.40
2023-02-01T01:40:35.159Z,7.65
2023-02-01T01:41:36.713Z,7.35
2023-02-01T01:42:43.665Z,7.05
2023-02-01T01:44:03.470Z,7.10
2023-02-01T01:45:10.054Z,7.28
2023-02-01T01:46:11.622Z,8.95
2023-02-01T01:47:15.187Z,6.70
2023-02-01T01:48:28.903Z,6.65
2023-02-01T01:49:30.504Z,6.60
2023-02-01T01:50:42.056Z,8.07
2023-02-01T01:51:52.729Z,10.57
2023-02-01T01:52:58.108Z,10.63
2023-02-01T01:54:03.013Z,6.88
2023-02-01T01:55:05.690Z,9.18
2023-02-01T01:56:07.523Z,9.10
2023-02-01T01:57:13.739Z,9.48
2023-02-01T01:58:19.186Z,7.50
2023-02-01T01:59:23.019Z,8.35
2023-02-01T02:00:24.774Z,10.95
2023-02-01T02:01:26.784Z,5.70
2023-02-01T02:02:28.475Z,10.40
2023-02-01T02:03:38.614Z,8.32
2023-02-01T02:04:40.458Z,8.02
2023-02-01T02:05:43.109Z,8.13
2023-02-01T02:07:05.035Z,8.02
2023-02-01T02:08:06.838Z,7.40
2023-02-01T02:09:08.404Z,7.53
2023-02-01T02:10:12.240Z,9.25
2023-02-01T02:11:17.141Z,7.03
2023-02-01T02:12:18.984Z,9.07
2023-02-01T02:13:20.819Z,7.65
2023-02-01T02:14:25.244Z,9.68
2023-02-01T02:15:27.060Z,7.60
2023-02-01T02:16:53.363Z,8.23
2023-02-01T02:18:20.063Z,8.63
2023-02-01T02:19:39.601Z,9.85
2023-02-01T02:20:55.024Z,9.68
2023-02-01T02:22:28.627Z,6.35
2023-02-01T02:23:48.781Z,7.82
2023-02-01T02:25:27.915Z,8.60
2023-02-01T02:26:58.936Z,9.57
2023-02-01T02:28:25.827Z,8.95
2023-02-01T02:29:48.796Z,10.77
2023-02-01T02:31:08.648Z,9.82
2023-02-01T02:32:25.457Z,7.55
2023-02-01T02:33:39.716Z,7.97
2023-02-01T02:34:45.247Z,11.20
2023-02-01T02:36:13.307Z,10.90
2023-02-01T02:37:35.295Z,7.80
2023-02-01T02:38:51.298Z,8.18
2023-02-01T02:40:07.672Z,9.77
2023-02-01T02:41:35.153Z,11.57
2023-02-01T02:43:20.167Z,10.07
2023-02-01T02:44:55.854Z,13.27
2023-02-01T02:46:30.974Z,8.48
2023-02-01T02:47:57.143Z,8.05
2023-02-01T02:49:16.370Z,8.50
2023-02-01T02:50:44.579Z,10.57
2023-02-01T02:52:14.916Z,9.07
2023-02-01T02:53:41.079Z,8.18
2023-02-01T02:54:48.033Z,10.52
2023-02-01T02:55:52.870Z,8.43
2023-02-01T02:57:16.346Z,9.98
2023-02-01T02:58:36.449Z,8.93
2023-02-01T02:59:59.463Z,10.13
2023-02-01T03:01:22.306Z,9.68
2023-02-01T03:02:45.221Z,8.32
2023-02-01T03:04:07.611Z,12.10
2023-02-01T03:05:09.230Z,7.90
2023-02-01T03:06:17.493Z,9.07
2023-02-01T03:07:56.417Z,12.38
2023-02-01T03:09:00.169Z,8.95
2023-02-01T03:10:08.683Z,12.15
2023-02-01T03:11:12.730Z,9.52
2023-02-01T03:12:34.878Z,11.80
2023-02-01T03:13:54.974Z,9.90
2023-02-01T03:15:07.153Z,8.90
2023-02-01T03:16:27.452Z,10.90
2023-02-01T03:17:36.074Z,7.47
2023-02-01T03:18:59.028Z,9.60
2023-02-01T03:20:02.344Z,7.93
2023-02-01T03:21:09.275Z,9.23
2023-02-01T03:22:15.680Z,8.73
2023-02-01T03:23:20.963Z,7.93
2023-02-01T03:24:34.161Z,9.93
2023-02-01T03:25:36.150Z,7.63
2023-02-01T03:26:40.058Z,10.00
2023-02-01T03:28:03.354Z,12.93
2023-02-01T03:29:17.396Z,12.38
2023-02-01T03:30:26.916Z,8.15
2023-02-01T03:31:29.532Z,9.52
2023-02-01T03:32:51.139Z,8.60
2023-02-01T03:33:53.086Z,10.35
2023-02-01T03:34:55.267Z,9.27
2023-02-01T03:36:26.979Z,9.50
2023-02-01T03:37:29.377Z,8.70
2023-02-01T03:39:08.463Z,8.20
2023-02-01T03:40:12.845Z,8.45
2023-02-01T03:41:21.000Z,9.55
2023-02-01T03:42:31.238Z,8.57
2023-02-01T03:43:40.759Z,8.07
2023-02-01T03:44:51.683Z,6.38
2023-02-01T03:46:04.143Z,5.72
2023-02-01T03:47:17.141Z,6.18
2023-02-01T03:48:20.160Z,6.95
2023-02-01T03:49:30.266Z,6.40
2023-02-01T03:50:34.702Z,7.90
2023-02-01T03:51:39.678Z,4.82
2023-02-01T03:52:45.024Z,6.03
2023-02-01T03:53:49.840Z,5.38
2023-02-01T03:54:53.229Z,6.07
2023-02-01T03:55:55.395Z,4.90
2023-02-01T03:57:01.871Z,4.43
2023-02-01T03:58:22.910Z,6.65
2023-02-01T03:59:25.173Z,7.63
2023-02-01T04:00:27.586Z,6.45
2023-02-01T04:01:31.770Z,6.60
2023-02-01T04:02:33.785Z,6.55
2023-02-01T04:03:35.523Z,7.28
2023-02-01T04:04:37.651Z,5.47
2023-02-01T04:05:39.205Z,8.07
2023-02-01T04:06:40.795Z,6.22
2023-02-01T04:07:42.588Z,6.18
2023-02-01T04:08:44.242Z,5.35
2023-02-01T04:09:45.766Z,6.88
2023-02-01T04:10:47.444Z,7.65
2023-02-01T04:11:49.026Z,5.07
2023-02-01T04:12:50.575Z,7.28
2023-02-01T04:13:52.111Z,6.40
2023-02-01T04:14:53.635Z,5.38
2023-02-01T04:15:55.185Z,7.07
2023-02-01T04:16:56.782Z,6.53
2023-02-01T04:17:58.323Z,6.28
2023-02-01T04:19:00.583Z,7.03
2023-02-01T04:20:02.155Z,8.23
2023-02-01T04:21:04.123Z,7.60
2023-02-01T04:22:05.715Z,7.22
2023-02-01T04:23:07.304Z,6.78
2023-02-01T04:24:09.838Z,7.72
2023-02-01T04:25:11.704Z,10.05
2023-02-01T04:26:13.270Z,8.05
2023-02-01T04:27:14.882Z,9.05
2023-02-01T04:28:16.440Z,7.53
2023-02-01T04:29:18.127Z,12.57
2023-02-01T04:30:21.282Z,9.80
2023-02-01T04:31:26.728Z,10.35
2023-02-01T04:32:28.494Z,9.02
2023-02-01T04:33:30.035Z,12.35
2023-02-01T04:34:31.849Z,11.15
2023-02-01T04:35:33.433Z,11.35
2023-02-01T04:36:35.041Z,12.23
2023-02-01T04:37:36.626Z,10.05
2023-02-01T04:38:38.168Z,9.27
2023-02-01T04:39:39.707Z,10.82
2023-02-01T04:40:41.252Z,8.10
2023-02-01T04:41:43.192Z,7.72
2023-02-01T04:42:44.781Z,8.77
2023-02-01T04:43:51.964Z,11.95
2023-02-01T04:44:53.522Z,8.90
2023-02-01T04:45:55.158Z,9.77
2023-02-01T04:46:56.805Z,11.02
2023-02-01T04:47:58.386Z,9.20
2023-02-01T04:48:59.946Z,8.93
2023-02-01T04:50:01.834Z,10.60
2023-02-01T04:51:03.418Z,12.00
2023-02-01T04:52:05.231Z,10.52
2023-02-01T04:53:06.817Z,10.40
2023-02-01T04:54:09.221Z,10.05
2023-02-01T04:55:10.790Z,8.05
2023-02-01T04:56:12.431Z,8.30
2023-02-01T04:57:14.486Z,9.33
2023-02-01T04:58:16.092Z,7.88
2023-02-01T04:59:17.660Z,8.05
2023-02-01T05:00:19.739Z,11.95
2023-02-01T05:01:21.320Z,11.35
2023-02-01T05:02:22.874Z,8.93
2023-02-01T05:03:24.654Z,8.80
2023-02-01T05:04:26.258Z,11.20
2023-02-01T05:05:28.635Z,9.40
2023-02-01T05:06:30.296Z,9.43
2023-02-01T05:07:31.852Z,8.98
2023-02-01T05:08:33.903Z,11.00
2023-02-01T05:09:35.571Z,10.45
2023-02-01T05:10:37.115Z,11.23
2023-02-01T05:11:57.411Z,9.45
2023-02-01T05:13:17.315Z,10.95
2023-02-01T05:14:18.891Z,12.85
2023-02-01T05:15:20.438Z,12.55
2023-02-01T05:16:21.996Z,11.87
2023-02-01T05:17:23.593Z,11.73
2023-02-01T05:18:25.318Z,12.65
2023-02-01T05:19:26.935Z,12.55
2023-02-01T05:20:28.554Z,11.15
2023-02-01T05:21:30.163Z,9.70
2023-02-01T05:22:32.047Z,10.65
2023-02-01T05:23:33.614Z,11.40
2023-02-01T05:24:35.370Z,14.05
2023-02-01T05:25:36.958Z,11.45
2023-02-01T05:26:39.865Z,9.73
2023-02-01T05:27:41.423Z,8.07
2023-02-01T05:28:42.964Z,10.90
2023-02-01T05:29:44.539Z,8.18
2023-02-01T05:30:46.200Z,10.25
2023-02-01T05:31:48.752Z,10.23
2023-02-01T05:32:52.161Z,9.80
2023-02-01T05:33:53.716Z,11.82
2023-02-01T05:34:55.321Z,12.90
2023-02-01T05:35:56.948Z,10.55
2023-02-01T05:36:58.488Z,12.80
2023-02-01T05:38:00.147Z,9.15
2023-02-01T05:39:01.721Z,10.43
2023-02-01T05:40:04.290Z,9.38
2023-02-01T05:41:05.879Z,10.80
2023-02-01T05:42:07.659Z,8.57
2023-02-01T05:43:09.223Z,12.15
2023-02-01T05:44:12.202Z,11.05
2023-02-01T05:45:13.877Z,10.27
2023-02-01T05:46:15.866Z,11.32
2023-02-01T05:47:17.475Z,12.23
2023-02-01T05:48:19.386Z,8.20
2023-02-01T05:49:21.021Z,10.38
2023-02-01T05:50:22.935Z,8.55
2023-02-01T05:51:24.827Z,9.90
2023-02-01T05:52:26.405Z,11.10
2023-02-01T05:53:28.141Z,12.07
2023-02-01T05:54:30.352Z,9.07
2023-02-01T05:55:31.986Z,9.20
2023-02-01T05:56:33.532Z,12.32
2023-02-01T05:57:35.216Z,10.68
2023-02-01T05:58:37.143Z,11.18
2023-02-01T05:59:42.077Z,11.43
2023-02-01T06:00:43.675Z,10.80
2023-02-01T06:01:45.219Z,10.75
2023-02-01T06:02:46.776Z,9.60
2023-02-01T06:03:48.465Z,10.30
2023-02-01T06:04:50.054Z,10.40
2023-02-01T06:05:51.626Z,10.00
2023-02-01T06:06:53.189Z,10.85
2023-02-01T06:07:54.925Z,10.45
2023-02-01T06:08:56.479Z,10.50
2023-02-01T06:09:58.029Z,11.60
2023-02-01T06:11:01.709Z,10.18
2023-02-01T06:12:05.076Z,13.40
2023-02-01T06:13:07.047Z,12.30
2023-02-01T06:14:09.126Z,9.38
2023-02-01T06:15:10.916Z,13.50
2023-02-01T06:16:12.637Z,9.65
2023-02-01T06:17:14.230Z,10.30
2023-02-01T06:18:16.916Z,9.93
2023-02-01T06:19:18.504Z,10.90
2023-02-01T06:20:20.385Z,10.93
2023-02-01T06:21:25.016Z,11.70
2023-02-01T06:22:26.805Z,9.27
2023-02-01T06:23:31.919Z,9.90
2023-02-01T06:24:33.590Z,8.52
2023-02-01T06:25:35.169Z,9.85
2023-02-01T06:26:37.154Z,9.65
2023-02-01T06:27:38.895Z,8.65
2023-02-01T06:28:40.461Z,7.68
2023-02-01T06:29:42.254Z,8.68
2023-02-01T06:30:47.032Z,7.90
2023-02-01T06:31:48.713Z,9.88
2023-02-01T06:32:55.329Z,10.27
2023-02-01T06:33:56.881Z,9.10
2023-02-01T06:34:59.084Z,10.18
2023-02-01T06:36:03.034Z,9.45
2023-02-01T06:37:04.622Z,10.40
2023-02-01T06:38:06.163Z,7.03
2023-02-01T06:39:07.718Z,8.18
2023-02-01T06:40:10.011Z,9.38
2023-02-01T06:41:12.180Z,9.20
2023-02-01T06:42:14.599Z,10.02
2023-02-01T06:43:16.535Z,9.32
2023-02-01T06:44:18.146Z,10.27
2023-02-01T06:45:19.687Z,8.60
2023-02-01T06:46:21.291Z,7.15
2023-02-01T06:47:22.886Z,8.15
2023-02-01T06:48:24.645Z,9.27
2023-02-01T06:49:26.186Z,9.05
2023-02-01T06:50:28.211Z,12.73
2023-02-01T06:51:30.323Z,9.13
2023-02-01T06:52:31.948Z,10.00
2023-02-01T06:53:33.537Z,9.75
2023-02-01T06:54:35.273Z,9.60
2023-02-01T06:55:37.005Z,8.70
2023-02-01T06:56:39.628Z,11.73
2023-02-01T06:57:41.209Z,9.73
2023-02-01T06:58:42.991Z,9.88
2023-02-01T06:59:44.546Z,10.00
2023-02-01T07:00:46.111Z,8.80
2023-02-01T07:01:47.754Z,8.50
2023-02-01T07:02:49.515Z,8.48
2023-02-01T07:03:52.225Z,12.38
2023-02-01T07:04:53.816Z,8.05
2023-02-01T07:05:59.521Z,7.13
2023-02-01T07:07:01.070Z,9.90
2023-02-01T07:08:02.653Z,7.22
2023-02-01T07:09:04.308Z,7.97
2023-02-01T07:10:06.575Z,12.60
2023-02-01T07:11:11.542Z,8.43
2023-02-01T07:12:13.379Z,10.65
2023-02-01T07:13:14.979Z,11.07
2023-02-01T07:14:16.520Z,9.48
2023-02-01T07:15:18.275Z,9.80
2023-02-01T07:16:20.943Z,9.55
2023-02-01T07:17:22.758Z,8.70
2023-02-01T07:18:24.396Z,7.07
2023-02-01T07:19:25.933Z,11.68
2023-02-01T07:20:27.506Z,7.47
2023-02-01T07:21:29.071Z,7.03
2023-02-01T07:22:30.687Z,8.82
2023-02-01T07:23:32.604Z,7.07
2023-02-01T07:24:35.207Z,9.85
2023-02-01T07:26:06.809Z,8.10
2023-02-01T08:49:06.808Z,8.95
2023-02-01T08:50:24.310Z,8.95
2023-02-01T08:51:47.124Z,9.43
2023-02-01T08:55:21.827Z,8.88
2023-02-01T08:56:32.466Z,10.30
2023-02-01T08:57:51.095Z,6.15
2023-02-01T08:58:58.475Z,9.82
2023-02-01T09:00:33.342Z,8.32
2023-02-01T09:01:44.384Z,8.88
2023-02-01T09:02:59.614Z,9.15
2023-02-01T09:04:22.288Z,8.23
2023-02-01T09:05:54.069Z,8.90
2023-02-01T09:08:41.338Z,7.75
2023-02-01T09:13:12.900Z,6.25
2023-02-01T09:14:36.662Z,8.30
2023-02-01T09:15:43.514Z,6.55
2023-02-01T09:17:07.468Z,8.50
2023-02-01T09:18:19.243Z,8.30
2023-02-01T09:21:00.757Z,7.35
2023-02-01T09:22:10.135Z,10.27
2023-02-01T09:24:07.694Z,10.95
2023-02-01T09:25:13.995Z,7.22
2023-02-01T09:26:55.845Z,8.68
2023-02-01T09:28:07.398Z,8.15
2023-02-01T09:29:31.736Z,7.85
2023-02-01T09:30:34.761Z,8.55
2023-02-01T09:31:44.111Z,9.48
2023-02-01T09:32:52.144Z,9.13
2023-02-01T09:33:54.317Z,9.93
2023-02-01T09:35:31.539Z,7.25
2023-02-01T09:36:34.958Z,8.73
2023-02-01T09:37:42.850Z,7.15
2023-02-01T09:41:45.766Z,10.38
2023-02-01T09:47:24.583Z,9.07
2023-02-01T09:51:05.716Z,9.07
2023-02-01T09:55:02.512Z,8.18
2023-02-01T09:56:28.094Z,7.50
2023-02-01T09:58:02.408Z,4.95
2023-02-01T10:08:31.873Z,8.80
2023-02-01T10:09:45.772Z,6.82
2023-02-01T10:11:03.995Z,6.57
2023-02-01T10:12:15.320Z,6.25
2023-02-01T10:14:58.632Z,5.55
2023-02-01T10:16:53.233Z,6.60
2023-02-01T10:18:12.592Z,7.10
2023-02-01T10:30:59.836Z,5.80
2023-02-01T10:36:22.492Z,7.00
2023-02-01T10:38:31.150Z,5.70
2023-02-01T10:40:26.853Z,5.47
2023-02-01T10:42:41.617Z,6.63
2023-02-01T10:44:45.868Z,8.10
2023-02-01T10:46:33.375Z,7.78
2023-02-01T10:47:35.831Z,4.97
2023-02-01T10:48:42.367Z,5.32
2023-02-01T10:50:43.170Z,7.30
2023-02-01T10:52:49.488Z,5.50
2023-02-01T10:54:43.395Z,5.57
2023-02-01T10:56:31.416Z,4.93
2023-02-01T10:58:13.609Z,5.68
2023-02-01T11:01:08.449Z,6.13
2023-02-01T11:02:35.934Z,6.70
2023-02-01T11:05:13.484Z,5.53
2023-02-01T11:07:13.327Z,8.75
2023-02-01T11:08:55.625Z,9.40
2023-02-01T11:10:04.776Z,4.47
2023-02-01T11:11:07.903Z,7.30
2023-02-01T11:12:31.605Z,5.72
2023-02-01T11:13:38.225Z,5.05
2023-02-01T11:14:41.628Z,5.18
2023-02-01T11:15:50.487Z,5.13
2023-02-01T11:17:04.067Z,6.72
2023-02-01T11:18:20.444Z,4.45
2023-02-01T11:19:22.932Z,5.63
2023-02-01T11:20:33.447Z,4.78
2023-02-01T11:21:36.818Z,5.80
2023-02-01T11:23:04.707Z,5.95
2023-02-01T11:25:42.072Z,4.93
2023-02-01T11:27:33.417Z,7.35
2023-02-01T11:28:47.324Z,5.40
2023-02-01T11:29:59.371Z,5.35
2023-02-01T11:31:25.977Z,4.97
2023-02-01T11:32:52.522Z,6.03
2023-02-01T11:34:01.362Z,6.43
2023-02-01T11:35:08.773Z,4.75
2023-02-01T11:36:26.753Z,4.20
2023-02-01T11:37:44.895Z,4.47
2023-02-01T11:39:12.563Z,7.03
2023-02-01T11:40:17.362Z,7.68
2023-02-01T11:41:28.901Z,5.72
2023-02-01T11:42:31.486Z,10.13
2023-02-01T11:43:33.583Z,9.43
2023-02-01T11:44:35.941Z,5.13
2023-02-01T11:45:41.231Z,9.65
2023-02-01T11:46:43.844Z,5.63
2023-02-01T11:47:48.103Z,5.80
2023-02-01T11:49:10.481Z,6.03
2023-02-01T11:50:57.721Z,4.63
2023-02-01T17:55:37.106Z,2.40
2023-02-01T17:56:38.948Z,2.72
2023-02-01T17:57:40.497Z,3.63
2023-02-01T17:58:42.718Z,3.22
2023-02-01T17:59:44.336Z,2.03
2023-02-01T18:00:47.734Z,2.00
2023-02-01T18:01:49.707Z,2.03
2023-02-01T18:02:51.467Z,1.35
2023-02-01T18:03:53.135Z,2.47
2023-02-01T18:04:55.007Z,1.05
2023-02-01T18:05:58.335Z,1.08
2023-02-01T18:06:59.962Z,0.57
2023-02-01T18:08:01.569Z,0.60
2023-02-01T18:09:03.317Z,0.63
2023-02-01T18:10:05.347Z,0.82
2023-02-01T18:11:12.495Z,0.77
2023-02-01T18:12:25.537Z,1.98
2023-02-01T18:13:32.243Z,1.10
2023-02-01T18:14:33.858Z,0.73
2023-02-01T18:15:36.261Z,0.93
2023-02-01T18:16:38.020Z,1.58
2023-02-01T18:17:40.005Z,0.63
2023-02-01T18:18:41.594Z,0.75
2023-02-01T18:19:43.199Z,0.77
2023-02-01T18:20:46.381Z,1.30
2023-02-01T18:21:48.745Z,1.40
2023-02-01T18:22:51.185Z,2.00
2023-02-01T18:23:52.733Z,2.00
2023-02-01T18:24:54.397Z,2.13
2023-02-01T18:25:56.161Z,1.60
2023-02-01T18:26:59.906Z,1.60
2023-02-01T18:28:01.478Z,1.63
2023-02-01T18:29:03.064Z,1.20
2023-02-01T18:30:06.494Z,1.50
2023-02-01T18:31:24.485Z,1.65
2023-02-01T18:32:26.096Z,2.30
2023-02-01T18:33:27.708Z,2.13
2023-02-01T18:34:30.250Z,2.55
2023-02-01T18:35:32.660Z,2.63
2023-02-01T18:36:34.310Z,1.95
2023-02-01T18:37:35.891Z,2.60
2023-02-01T18:38:37.462Z,1.92
2023-02-01T18:39:39.565Z,2.85
2023-02-01T18:40:50.201Z,2.13
2023-02-01T18:41:51.959Z,2.60
2023-02-01T18:42:53.594Z,3.45
2023-02-01T18:43:55.667Z,2.92
2023-02-01T18:44:57.345Z,2.75
2023-02-01T18:45:59.020Z,4.28
2023-02-01T18:47:00.855Z,3.88
2023-02-01T18:48:03.992Z,3.25
2023-02-01T18:49:05.575Z,4.18
2023-02-01T18:50:07.204Z,4.57
2023-02-01T18:51:14.300Z,4.05
2023-02-01T18:52:15.943Z,4.32
2023-02-01T18:53:20.366Z,4.78
2023-02-01T18:54:24.685Z,3.92
2023-02-01T18:55:28.267Z,4.13
2023-02-01T18:56:29.920Z,4.55
2023-02-01T18:57:33.546Z,4.47
2023-02-01T18:58:35.101Z,4.53
2023-02-01T18:59:36.664Z,5.03
2023-02-01T19:00:38.235Z,6.40
2023-02-01T19:01:40.475Z,4.88
2023-02-01T19:02:42.488Z,4.55
2023-02-01T19:03:50.692Z,4.28
2023-02-01T19:05:10.416Z,5.28
2023-02-01T19:06:12.246Z,3.28
2023-02-01T19:07:13.855Z,5.05
2023-02-01T19:08:15.657Z,3.30
2023-02-01T19:09:17.335Z,3.67
2023-02-01T19:10:22.395Z,4.72
2023-02-01T19:11:24.062Z,4.43
2023-02-01T19:12:26.820Z,2.83
2023-02-01T19:13:31.659Z,3.92
2023-02-01T19:14:33.306Z,3.38
2023-02-01T19:15:40.281Z,3.17
2023-02-01T19:16:42.287Z,2.65
2023-02-01T19:17:47.420Z,2.40
2023-02-01T19:18:54.226Z,2.67
2023-02-01T19:19:58.734Z,3.50
2023-02-01T19:21:06.469Z,2.38
2023-02-01T19:22:11.865Z,2.60
2023-02-01T19:23:14.378Z,3.10
2023-02-01T19:24:17.096Z,3.00
2023-02-01T19:25:24.941Z,3.05
2023-02-01T19:26:26.804Z,4.20
2023-02-01T19:27:28.521Z,2.88
2023-02-01T19:28:31.722Z,3.08
2023-02-01T19:29:36.011Z,4.07
2023-02-01T19:30:37.735Z,4.13
2023-02-01T19:31:39.547Z,3.05
2023-02-01T19:32:41.255Z,3.10
2023-02-01T19:33:42.847Z,3.20
2023-02-01T19:34:44.516Z,2.42
2023-02-01T19:35:46.061Z,1.55
2023-02-01T19:36:48.238Z,2.35
2023-02-01T19:37:49.990Z,3.10
2023-02-01T19:38:51.570Z,3.67
2023-02-01T19:39:54.448Z,4.07
2023-02-01T19:40:56.631Z,2.90
2023-02-01T19:42:00.124Z,3.00
2023-02-01T19:43:01.817Z,5.13
2023-02-01T19:44:04.511Z,4.57
2023-02-01T19:45:10.885Z,4.07
2023-02-01T19:46:12.977Z,3.08
2023-02-01T19:47:14.712Z,2.53
2023-02-01T19:48:18.120Z,3.47
2023-02-01T19:49:20.476Z,3.92
2023-02-01T19:50:22.899Z,2.70
2023-02-01T19:51:24.651Z,4.05
2023-02-01T19:52:27.077Z,5.85
2023-02-01T19:53:29.472Z,3.22
2023-02-01T19:54:32.573Z,4.65
2023-02-01T19:55:34.323Z,4.43
2023-02-01T19:56:36.173Z,4.25
2023-02-01T19:57:37.939Z,4.00
2023-02-01T19:58:39.580Z,3.92
2023-02-01T19:59:43.272Z,6.47
2023-02-01T20:00:44.026Z,8.32
2023-02-01T20:01:46.848Z,6.50
2023-02-01T20:02:49.145Z,6.50
2023-02-01T20:03:51.413Z,4.22
2023-02-01T20:04:57.467Z,5.80
2023-02-01T20:05:59.257Z,4.18
2023-02-01T20:07:01.074Z,6.65
2023-02-01T20:08:02.912Z,5.53
2023-02-01T20:09:04.917Z,3.75
2023-02-01T20:10:07.599Z,4.93
2023-02-01T20:11:09.258Z,6.03
2023-02-01T20:40:12.959Z,3.08
2023-02-01T20:41:14.526Z,3.10
2023-02-01T20:42:16.422Z,3.42
2023-02-01T20:43:18.070Z,3.17
2023-02-01T20:44:19.686Z,4.97
2023-02-01T20:45:21.478Z,6.60
2023-02-01T20:46:23.655Z,6.45
2023-02-01T22:03:40.434Z,6.07
2023-02-01T22:04:42.967Z,5.60
2023-02-01T22:05:49.749Z,8.68
2023-02-01T22:06:51.327Z,4.53
2023-02-01T22:07:52.879Z,7.93
2023-02-01T22:08:55.234Z,4.68
2023-02-01T22:09:56.770Z,7.65
2023-02-01T22:10:58.636Z,5.18
2023-02-01T22:12:00.214Z,2.72
2023-02-01T22:13:02.127Z,3.65
2023-02-01T22:14:03.837Z,5.22
2023-02-01T22:15:05.640Z,5.22
2023-02-01T22:16:07.433Z,6.70
2023-02-01T22:17:08.982Z,9.35
2023-02-01T22:18:10.796Z,5.45
2023-02-01T22:19:12.725Z,6.50
2023-02-01T22:20:14.336Z,6.35
2023-02-01T22:21:15.964Z,5.05
2023-02-01T22:22:17.577Z,6.25
2023-02-01T22:23:19.432Z,5.20
2023-02-01T22:24:21.509Z,6.10
2023-02-01T22:25:28.681Z,6.40
2023-02-01T22:26:30.284Z,6.18
2023-02-01T22:28:30.957Z,6.85
2023-02-01T22:28:55.168Z,6.00
2023-02-01T22:29:57.159Z,6.63
2023-02-01T22:31:01.962Z,5.05
2023-02-01T22:32:03.734Z,7.18
2023-02-01T22:33:05.347Z,5.72
2023-02-01T22:34:07.721Z,4.90
2023-02-01T22:35:09.723Z,4.45
2023-02-01T22:36:11.558Z,5.63
2023-02-01T22:37:13.155Z,5.35
2023-02-01T22:38:15.613Z,6.03
2023-02-01T22:39:17.969Z,4.07
2023-02-01T22:40:19.665Z,5.35
2023-02-01T22:41:21.377Z,5.97
2023-02-01T22:42:22.981Z,4.35
2023-02-01T22:43:25.092Z,8.15
2023-02-01T22:44:26.631Z,5.10
2023-02-01T22:45:28.802Z,4.43
2023-02-01T22:46:33.550Z,5.77
2023-02-01T22:47:35.195Z,5.78
2023-02-01T22:48:38.654Z,5.50
2023-02-01T22:49:40.189Z,7.30
2023-02-01T22:50:42.038Z,4.82
2023-02-01T22:51:44.031Z,5.50
2023-02-01T22:52:45.627Z,5.97
2023-02-01T22:53:47.571Z,5.95
2023-02-01T22:54:49.221Z,6.05
2023-02-01T22:55:52.069Z,6.03
2023-02-01T22:56:53.700Z,5.35
2023-02-01T22:57:55.287Z,4.00
2023-02-01T22:58:59.302Z,7.18
2023-02-01T23:00:00.851Z,5.13
2023-02-01T23:01:13.326Z,5.57
2023-02-01T23:02:14.926Z,6.03
2023-02-01T23:03:16.632Z,5.90
2023-02-01T23:04:19.050Z,6.70
2023-02-01T23:05:21.640Z,4.72
2023-02-01T23:06:23.476Z,6.47
2023-02-01T23:07:25.049Z,5.88
2023-02-01T23:08:26.944Z,6.47
2023-02-01T23:09:28.639Z,8.13
2023-02-01T23:10:30.178Z,4.40
2023-02-01T23:11:31.915Z,5.43
2023-02-01T23:12:33.481Z,6.67
2023-02-01T23:13:36.345Z,7.80
2023-02-01T23:14:58.034Z,6.18
2023-02-01T23:16:00.093Z,6.25
2023-02-01T23:17:01.647Z,5.72
2023-02-01T23:18:03.556Z,6.35
2023-02-01T23:19:05.901Z,10.35
2023-02-01T23:20:10.996Z,7.13
2023-02-01T23:21:17.686Z,4.45
2023-02-01T23:22:19.397Z,7.28
2023-02-01T23:23:21.069Z,5.85
2023-02-01T23:24:22.679Z,8.93
2023-02-01T23:25:24.522Z,5.57
2023-02-01T23:26:29.229Z,5.43
2023-02-01T23:27:30.775Z,4.30
2023-02-01T23:28:33.027Z,5.13
2023-02-01T23:29:34.599Z,6.03
2023-02-01T23:30:36.161Z,6.80
2023-02-01T23:31:37.854Z,4.65
2023-02-01T23:32:39.502Z,5.78
2023-02-01T23:33:41.559Z,5.63
2023-02-01T23:34:43.142Z,5.35
2023-02-01T23:35:54.357Z,6.07
2023-02-01T23:36:57.220Z,5.70
2023-02-01T23:37:59.082Z,4.63
2023-02-01T23:39:00.695Z,3.75
2023-02-01T23:40:02.296Z,5.03
2023-02-01T23:41:05.876Z,5.88
2023-02-01T23:42:07.702Z,5.70
2023-02-01T23:43:27.806Z,6.20
2023-02-01T23:44:29.889Z,7.43
2023-02-01T23:45:31.509Z,6.88
2023-02-01T23:46:47.540Z,6.15
2023-02-01T23:47:49.211Z,5.93
2023-02-01T23:48:53.581Z,5.60
2023-02-01T23:49:55.247Z,4.85
2023-02-01T23:50:56.942Z,5.68
2023-02-01T23:51:58.531Z,5.65
2023-02-01T23:53:00.064Z,5.60
2023-02-01T23:54:02.321Z,5.97
2023-02-01T23:55:04.587Z,6.22
2023-02-01T23:56:07.282Z,6.28
2023-02-01T23:57:09.102Z,6.37
2023-02-01T23:58:10.739Z,6.75
2023-02-01T23:59:17.482Z,6.82
